sensor_id;sensor_type;location;lat;lon;timestamp;temperature;humidity
69823;SHT31;57119;52.516;13.508;2023-05-07T00:01:14;8.65;99.99
69823;SHT31;57119;52.516;13.508;2023-05-07T00:03:39;8.64;99.99
69823;SHT31;57119;52.516;13.508;2023-05-07T00:06:04;8.67;99.99
69823;SHT31;57119;52.516;13.508;2023-05-07T00:08:30;8.68;99.99
69823;SHT31;57119;52.516;13.508;2023-05-07T00:10:55;8.69;99.99
69823;SHT31;57119;52.516;13.508;2023-05-07T00:13:21;8.72;99.99
69823;SHT31;57119;52.516;13.508;2023-05-07T00:15:46;8.68;99.99
69823;SHT31;57119;52.516;13.508;2023-05-07T00:18:11;8.68;99.99
69823;SHT31;57119;52.516;13.508;2023-05-07T00:20:37;8.73;99.99
69823;SHT31;57119;52.516;13.508;2023-05-07T00:23:02;8.68;99.99
69823;SHT31;57119;52.516;13.508;2023-05-07T00:25:28;8.61;99.99
69823;SHT31;57119;52.516;13.508;2023-05-07T00:27:53;8.58;99.99
69823;SHT31;57119;52.516;13.508;2023-05-07T00:30:18;8.45;99.99
69823;SHT31;57119;52.516;13.508;2023-05-07T00:32:44;8.36;99.99
69823;SHT31;57119;52.516;13.508;2023-05-07T00:35:10;8.20;99.99
69823;SHT31;57119;52.516;13.508;2023-05-07T00:37:36;8.20;99.99
69823;SHT31;57119;52.516;13.508;2023-05-07T00:40:01;8.07;99.99
69823;SHT31;57119;52.516;13.508;2023-05-07T00:42:30;8.12;99.99
69823;SHT31;57119;52.516;13.508;2023-05-07T00:44:58;8.13;99.99
69823;SHT31;57119;52.516;13.508;2023-05-07T00:47:23;8.20;99.99
69823;SHT31;57119;52.516;13.508;2023-05-07T00:49:50;8.29;99.99
69823;SHT31;57119;52.516;13.508;2023-05-07T00:52:16;8.36;99.99
69823;SHT31;57119;52.516;13.508;2023-05-07T00:54:42;8.37;99.99
69823;SHT31;57119;52.516;13.508;2023-05-07T00:57:09;8.34;99.99
69823;SHT31;57119;52.516;13.508;2023-05-07T00:59:35;8.36;99.99
69823;SHT31;57119;52.516;13.508;2023-05-07T01:02:01;8.38;99.99
69823;SHT31;57119;52.516;13.508;2023-05-07T01:04:26;8.41;99.99
69823;SHT31;57119;52.516;13.508;2023-05-07T01:06:54;8.41;99.99
69823;SHT31;57119;52.516;13.508;2023-05-07T01:09:22;8.51;99.99
69823;SHT31;57119;52.516;13.508;2023-05-07T01:11:49;8.45;99.99
69823;SHT31;57119;52.516;13.508;2023-05-07T01:14:15;8.52;99.99
69823;SHT31;57119;52.516;13.508;2023-05-07T01:16:40;8.51;99.99
69823;SHT31;57119;52.516;13.508;2023-05-07T01:19:08;8.50;99.99
69823;SHT31;57119;52.516;13.508;2023-05-07T01:21:34;8.57;99.99
69823;SHT31;57119;52.516;13.508;2023-05-07T01:24:02;8.58;99.99
69823;SHT31;57119;52.516;13.508;2023-05-07T01:26:28;8.54;99.99
69823;SHT31;57119;52.516;13.508;2023-05-07T01:28:53;8.52;99.99
69823;SHT31;57119;52.516;13.508;2023-05-07T01:31:19;8.58;99.99
69823;SHT31;57119;52.516;13.508;2023-05-07T01:33:45;8.60;99.99
69823;SHT31;57119;52.516;13.508;2023-05-07T01:36:13;8.54;99.99
69823;SHT31;57119;52.516;13.508;2023-05-07T01:38:41;8.52;99.99
69823;SHT31;57119;52.516;13.508;2023-05-07T01:41:06;8.62;99.99
69823;SHT31;57119;52.516;13.508;2023-05-07T01:43:33;8.51;99.99
69823;SHT31;57119;52.516;13.508;2023-05-07T01:45:58;8.51;99.99
69823;SHT31;57119;52.516;13.508;2023-05-07T01:48:25;8.60;99.99
69823;SHT31;57119;52.516;13.508;2023-05-07T01:50:51;8.61;99.99
69823;SHT31;57119;52.516;13.508;2023-05-07T01:53:17;8.61;99.99
69823;SHT31;57119;52.516;13.508;2023-05-07T01:55:42;8.60;99.99
69823;SHT31;57119;52.516;13.508;2023-05-07T01:58:07;8.61;99.99
69823;SHT31;57119;52.516;13.508;2023-05-07T02:00:34;8.57;99.99
69823;SHT31;57119;52.516;13.508;2023-05-07T02:02:59;8.54;99.99
69823;SHT31;57119;52.516;13.508;2023-05-07T02:05:25;8.61;99.99
69823;SHT31;57119;52.516;13.508;2023-05-07T02:07:50;8.67;99.99
69823;SHT31;57119;52.516;13.508;2023-05-07T02:10:15;8.58;99.99
69823;SHT31;57119;52.516;13.508;2023-05-07T02:12:41;8.61;99.99
69823;SHT31;57119;52.516;13.508;2023-05-07T02:15:07;8.55;99.99
69823;SHT31;57119;52.516;13.508;2023-05-07T02:17:33;8.60;99.99
69823;SHT31;57119;52.516;13.508;2023-05-07T02:19:59;8.60;99.99
69823;SHT31;57119;52.516;13.508;2023-05-07T02:22:25;8.67;99.99
69823;SHT31;57119;52.516;13.508;2023-05-07T02:24:50;8.62;99.99
69823;SHT31;57119;52.516;13.508;2023-05-07T02:27:16;8.58;99.92
69823;SHT31;57119;52.516;13.508;2023-05-07T02:29:41;8.62;99.99
69823;SHT31;57119;52.516;13.508;2023-05-07T02:32:07;8.54;99.99
69823;SHT31;57119;52.516;13.508;2023-05-07T02:34:32;8.62;99.99
69823;SHT31;57119;52.516;13.508;2023-05-07T02:36:58;8.52;99.99
69823;SHT31;57119;52.516;13.508;2023-05-07T02:39:23;8.55;99.99
69823;SHT31;57119;52.516;13.508;2023-05-07T02:41:49;8.57;99.99
69823;SHT31;57119;52.516;13.508;2023-05-07T02:44:14;8.65;99.83
69823;SHT31;57119;52.516;13.508;2023-05-07T02:46:39;8.60;99.75
69823;SHT31;57119;52.516;13.508;2023-05-07T02:49:05;8.57;99.49
69823;SHT31;57119;52.516;13.508;2023-05-07T02:51:31;8.54;99.73
69823;SHT31;57119;52.516;13.508;2023-05-07T02:53:56;8.48;99.88
69823;SHT31;57119;52.516;13.508;2023-05-07T02:56:22;8.60;99.85
69823;SHT31;57119;52.516;13.508;2023-05-07T02:58:47;8.61;99.90
69823;SHT31;57119;52.516;13.508;2023-05-07T03:01:12;8.61;99.73
69823;SHT31;57119;52.516;13.508;2023-05-07T03:03:39;8.60;99.64
69823;SHT31;57119;52.516;13.508;2023-05-07T03:06:05;8.67;99.35
69823;SHT31;57119;52.516;13.508;2023-05-07T03:08:31;8.60;99.73
69823;SHT31;57119;52.516;13.508;2023-05-07T03:10:57;8.60;99.99
69823;SHT31;57119;52.516;13.508;2023-05-07T03:13:22;8.55;99.93
69823;SHT31;57119;52.516;13.508;2023-05-07T03:15:48;8.50;99.99
69823;SHT31;57119;52.516;13.508;2023-05-07T03:18:13;8.57;99.99
69823;SHT31;57119;52.516;13.508;2023-05-07T03:20:39;8.61;99.75
69823;SHT31;57119;52.516;13.508;2023-05-07T03:23:04;8.48;99.99
69823;SHT31;57119;52.516;13.508;2023-05-07T03:25:31;8.55;99.99
69823;SHT31;57119;52.516;13.508;2023-05-07T03:27:56;8.51;99.99
69823;SHT31;57119;52.516;13.508;2023-05-07T03:30:22;8.47;99.99
69823;SHT31;57119;52.516;13.508;2023-05-07T03:32:48;8.40;99.99
69823;SHT31;57119;52.516;13.508;2023-05-07T03:35:13;8.44;99.98
69823;SHT31;57119;52.516;13.508;2023-05-07T03:37:39;8.41;99.99
69823;SHT31;57119;52.516;13.508;2023-05-07T03:40:05;8.40;99.99
69823;SHT31;57119;52.516;13.508;2023-05-07T03:42:31;8.48;99.99
69823;SHT31;57119;52.516;13.508;2023-05-07T03:44:56;8.50;99.99
69823;SHT31;57119;52.516;13.508;2023-05-07T03:47:22;8.40;99.99
69823;SHT31;57119;52.516;13.508;2023-05-07T03:49:47;8.44;99.99
69823;SHT31;57119;52.516;13.508;2023-05-07T03:52:14;8.37;99.99
69823;SHT31;57119;52.516;13.508;2023-05-07T03:54:40;8.36;99.99
69823;SHT31;57119;52.516;13.508;2023-05-07T03:57:05;8.36;99.99
69823;SHT31;57119;52.516;13.508;2023-05-07T03:59:30;8.38;99.99
69823;SHT31;57119;52.516;13.508;2023-05-07T04:01:56;8.44;99.67
69823;SHT31;57119;52.516;13.508;2023-05-07T04:04:21;8.45;99.85
69823;SHT31;57119;52.516;13.508;2023-05-07T04:06:47;8.31;99.70
69823;SHT31;57119;52.516;13.508;2023-05-07T04:09:12;8.40;99.57
69823;SHT31;57119;52.516;13.508;2023-05-07T04:11:37;8.41;99.72
69823;SHT31;57119;52.516;13.508;2023-05-07T04:14:05;8.31;99.49
69823;SHT31;57119;52.516;13.508;2023-05-07T04:16:30;8.40;99.51
69823;SHT31;57119;52.516;13.508;2023-05-07T04:18:56;8.40;99.26
69823;SHT31;57119;52.516;13.508;2023-05-07T04:21:21;8.42;99.09
69823;SHT31;57119;52.516;13.508;2023-05-07T04:23:47;8.45;98.88
69823;SHT31;57119;52.516;13.508;2023-05-07T04:26:13;8.54;98.88
69823;SHT31;57119;52.516;13.508;2023-05-07T04:28:39;8.48;98.53
69823;SHT31;57119;52.516;13.508;2023-05-07T04:31:05;8.50;98.89
69823;SHT31;57119;52.516;13.508;2023-05-07T04:33:31;8.67;98.16
69823;SHT31;57119;52.516;13.508;2023-05-07T04:35:57;8.67;97.62
69823;SHT31;57119;52.516;13.508;2023-05-07T04:38:22;8.73;97.68
69823;SHT31;57119;52.516;13.508;2023-05-07T04:40:51;8.73;97.48
69823;SHT31;57119;52.516;13.508;2023-05-07T04:43:16;8.76;97.68
69823;SHT31;57119;52.516;13.508;2023-05-07T04:45:41;8.64;97.44
69823;SHT31;57119;52.516;13.508;2023-05-07T04:48:09;8.69;97.25
69823;SHT31;57119;52.516;13.508;2023-05-07T04:50:34;8.79;97.10
69823;SHT31;57119;52.516;13.508;2023-05-07T04:53:00;8.79;96.62
69823;SHT31;57119;52.516;13.508;2023-05-07T04:55:26;8.90;96.05
69823;SHT31;57119;52.516;13.508;2023-05-07T04:57:52;8.88;95.77
69823;SHT31;57119;52.516;13.508;2023-05-07T05:00:18;8.96;95.86
69823;SHT31;57119;52.516;13.508;2023-05-07T05:02:45;9.06;95.41
69823;SHT31;57119;52.516;13.508;2023-05-07T05:05:10;9.02;95.38
69823;SHT31;57119;52.516;13.508;2023-05-07T05:07:36;9.22;95.20
69823;SHT31;57119;52.516;13.508;2023-05-07T05:10:02;9.38;94.50
69823;SHT31;57119;52.516;13.508;2023-05-07T05:12:29;9.31;94.54
69823;SHT31;57119;52.516;13.508;2023-05-07T05:14:55;9.46;94.43
69823;SHT31;57119;52.516;13.508;2023-05-07T05:17:20;9.58;94.24
69823;SHT31;57119;52.516;13.508;2023-05-07T05:19:46;9.40;94.04
69823;SHT31;57119;52.516;13.508;2023-05-07T05:22:11;9.29;94.21
69823;SHT31;57119;52.516;13.508;2023-05-07T05:24:36;9.16;94.61
69823;SHT31;57119;52.516;13.508;2023-05-07T05:27:02;9.36;94.72
69823;SHT31;57119;52.516;13.508;2023-05-07T05:29:28;9.46;93.97
69823;SHT31;57119;52.516;13.508;2023-05-07T05:31:53;9.41;93.52
69823;SHT31;57119;52.516;13.508;2023-05-07T05:34:18;9.52;93.29
69823;SHT31;57119;52.516;13.508;2023-05-07T05:36:47;9.48;93.62
69823;SHT31;57119;52.516;13.508;2023-05-07T05:39:12;9.41;94.07
69823;SHT31;57119;52.516;13.508;2023-05-07T05:41:38;9.48;93.74
69823;SHT31;57119;52.516;13.508;2023-05-07T05:44:03;9.75;93.22
69823;SHT31;57119;52.516;13.508;2023-05-07T05:46:29;9.89;92.87
69823;SHT31;57119;52.516;13.508;2023-05-07T05:48:55;9.61;93.05
69823;SHT31;57119;52.516;13.508;2023-05-07T05:51:21;9.59;92.64
69823;SHT31;57119;52.516;13.508;2023-05-07T05:53:46;9.38;93.71
69823;SHT31;57119;52.516;13.508;2023-05-07T05:56:12;9.57;92.95
69823;SHT31;57119;52.516;13.508;2023-05-07T05:58:37;9.84;92.58
69823;SHT31;57119;52.516;13.508;2023-05-07T06:01:03;10.03;92.31
69823;SHT31;57119;52.516;13.508;2023-05-07T06:03:28;10.25;91.93
69823;SHT31;57119;52.516;13.508;2023-05-07T06:05:53;9.82;92.24
69823;SHT31;57119;52.516;13.508;2023-05-07T06:08:19;10.26;91.60
69823;SHT31;57119;52.516;13.508;2023-05-07T06:10:45;10.29;90.78
69823;SHT31;57119;52.516;13.508;2023-05-07T06:13:10;10.17;91.09
69823;SHT31;57119;52.516;13.508;2023-05-07T06:15:36;10.64;90.04
69823;SHT31;57119;52.516;13.508;2023-05-07T06:18:01;10.06;91.38
69823;SHT31;57119;52.516;13.508;2023-05-07T06:20:30;9.77;91.30
69823;SHT31;57119;52.516;13.508;2023-05-07T06:22:56;9.98;91.50
69823;SHT31;57119;52.516;13.508;2023-05-07T06:25:21;10.08;91.50
69823;SHT31;57119;52.516;13.508;2023-05-07T06:27:46;10.30;90.90
69823;SHT31;57119;52.516;13.508;2023-05-07T06:30:12;10.63;90.91
69823;SHT31;57119;52.516;13.508;2023-05-07T06:32:37;10.54;91.01
69823;SHT31;57119;52.516;13.508;2023-05-07T06:35:03;10.44;89.56
69823;SHT31;57119;52.516;13.508;2023-05-07T06:37:28;10.74;89.25
69823;SHT31;57119;52.516;13.508;2023-05-07T06:39:53;10.85;88.45
69823;SHT31;57119;52.516;13.508;2023-05-07T06:42:19;11.07;88.38
69823;SHT31;57119;52.516;13.508;2023-05-07T06:44:44;10.61;88.54
69823;SHT31;57119;52.516;13.508;2023-05-07T06:47:10;10.94;88.12
69823;SHT31;57119;52.516;13.508;2023-05-07T06:49:35;10.92;88.16
69823;SHT31;57119;52.516;13.508;2023-05-07T06:52:01;11.62;86.90
69823;SHT31;57119;52.516;13.508;2023-05-07T06:54:26;11.36;86.38
69823;SHT31;57119;52.516;13.508;2023-05-07T06:56:51;11.56;86.47
69823;SHT31;57119;52.516;13.508;2023-05-07T06:59:17;12.05;85.15
69823;SHT31;57119;52.516;13.508;2023-05-07T07:01:42;11.66;85.57
69823;SHT31;57119;52.516;13.508;2023-05-07T07:04:07;11.70;86.19
69823;SHT31;57119;52.516;13.508;2023-05-07T07:06:33;12.27;84.95
69823;SHT31;57119;52.516;13.508;2023-05-07T07:08:59;12.75;83.15
69823;SHT31;57119;52.516;13.508;2023-05-07T07:11:25;12.42;82.95
69823;SHT31;57119;52.516;13.508;2023-05-07T07:13:50;12.58;82.31
69823;SHT31;57119;52.516;13.508;2023-05-07T07:16:16;13.13;82.07
69823;SHT31;57119;52.516;13.508;2023-05-07T07:18:41;12.89;80.67
69823;SHT31;57119;52.516;13.508;2023-05-07T07:21:07;13.23;81.45
69823;SHT31;57119;52.516;13.508;2023-05-07T07:23:32;13.44;81.55
69823;SHT31;57119;52.516;13.508;2023-05-07T07:25:58;14.19;78.16
69823;SHT31;57119;52.516;13.508;2023-05-07T07:28:23;14.75;77.03
69823;SHT31;57119;52.516;13.508;2023-05-07T07:30:48;14.69;76.86
69823;SHT31;57119;52.516;13.508;2023-05-07T07:33:14;15.77;74.98
69823;SHT31;57119;52.516;13.508;2023-05-07T07:35:40;16.46;72.99
69823;SHT31;57119;52.516;13.508;2023-05-07T07:38:06;16.36;71.42
69823;SHT31;57119;52.516;13.508;2023-05-07T07:40:31;15.70;73.07
69823;SHT31;57119;52.516;13.508;2023-05-07T07:42:57;14.93;73.87
69823;SHT31;57119;52.516;13.508;2023-05-07T07:45:22;14.79;75.44
69823;SHT31;57119;52.516;13.508;2023-05-07T07:47:48;15.51;72.98
69823;SHT31;57119;52.516;13.508;2023-05-07T07:50:13;16.38;71.50
69823;SHT31;57119;52.516;13.508;2023-05-07T07:52:39;15.91;71.02
69823;SHT31;57119;52.516;13.508;2023-05-07T07:55:05;14.69;73.45
69823;SHT31;57119;52.516;13.508;2023-05-07T07:57:30;16.16;71.73
69823;SHT31;57119;52.516;13.508;2023-05-07T07:59:56;16.30;70.57
69823;SHT31;57119;52.516;13.508;2023-05-07T08:02:21;15.00;72.52
69823;SHT31;57119;52.516;13.508;2023-05-07T08:04:47;15.87;69.67
69823;SHT31;57119;52.516;13.508;2023-05-07T08:07:13;16.16;71.15
69823;SHT31;57119;52.516;13.508;2023-05-07T08:09:39;17.76;67.56
69823;SHT31;57119;52.516;13.508;2023-05-07T08:12:05;18.14;65.11
69823;SHT31;57119;52.516;13.508;2023-05-07T08:14:31;17.14;67.44
69823;SHT31;57119;52.516;13.508;2023-05-07T08:16:56;15.92;68.24
69823;SHT31;57119;52.516;13.508;2023-05-07T08:19:22;16.69;67.26
69823;SHT31;57119;52.516;13.508;2023-05-07T08:21:47;17.70;64.53
69823;SHT31;57119;52.516;13.508;2023-05-07T08:24:14;17.25;66.83
69823;SHT31;57119;52.516;13.508;2023-05-07T08:26:39;17.00;66.45
69823;SHT31;57119;52.516;13.508;2023-05-07T08:29:05;18.99;64.85
69823;SHT31;57119;52.516;13.508;2023-05-07T08:31:30;19.35;63.78
69823;SHT31;57119;52.516;13.508;2023-05-07T08:33:57;17.87;64.65
69823;SHT31;57119;52.516;13.508;2023-05-07T08:36:23;17.12;66.37
69823;SHT31;57119;52.516;13.508;2023-05-07T08:38:49;18.27;65.18
69823;SHT31;57119;52.516;13.508;2023-05-07T08:41:15;18.93;62.97
69823;SHT31;57119;52.516;13.508;2023-05-07T08:43:41;18.13;64.45
69823;SHT31;57119;52.516;13.508;2023-05-07T08:46:08;15.74;68.39
69823;SHT31;57119;52.516;13.508;2023-05-07T08:48:34;17.79;64.36
69823;SHT31;57119;52.516;13.508;2023-05-07T08:51:01;16.21;67.14
69823;SHT31;57119;52.516;13.508;2023-05-07T08:53:26;18.17;64.36
69823;SHT31;57119;52.516;13.508;2023-05-07T08:55:52;18.71;62.07
69823;SHT31;57119;52.516;13.508;2023-05-07T08:58:18;17.15;65.34
69823;SHT31;57119;52.516;13.508;2023-05-07T09:00:43;17.07;66.09
69823;SHT31;57119;52.516;13.508;2023-05-07T09:03:09;17.50;66.42
69823;SHT31;57119;52.516;13.508;2023-05-07T09:05:37;17.66;67.26
69823;SHT31;57119;52.516;13.508;2023-05-07T09:08:06;19.06;62.51
69823;SHT31;57119;52.516;13.508;2023-05-07T09:10:33;17.61;65.40
69823;SHT31;57119;52.516;13.508;2023-05-07T09:12:59;16.28;67.47
69823;SHT31;57119;52.516;13.508;2023-05-07T09:15:25;16.16;67.70
69823;SHT31;57119;52.516;13.508;2023-05-07T09:17:51;15.64;70.32
69823;SHT31;57119;52.516;13.508;2023-05-07T09:20:16;16.15;70.83
69823;SHT31;57119;52.516;13.508;2023-05-07T09:22:42;16.53;68.66
69823;SHT31;57119;52.516;13.508;2023-05-07T09:25:09;17.52;66.79
69823;SHT31;57119;52.516;13.508;2023-05-07T09:27:35;16.64;66.08
69823;SHT31;57119;52.516;13.508;2023-05-07T09:30:03;17.72;65.75
69823;SHT31;57119;52.516;13.508;2023-05-07T09:32:29;18.06;65.29
69823;SHT31;57119;52.516;13.508;2023-05-07T09:34:56;17.63;66.18
69823;SHT31;57119;52.516;13.508;2023-05-07T09:37:21;19.07;63.56
69823;SHT31;57119;52.516;13.508;2023-05-07T09:39:49;19.95;61.36
69823;SHT31;57119;52.516;13.508;2023-05-07T09:42:15;19.90;62.61
69823;SHT31;57119;52.516;13.508;2023-05-07T09:44:41;19.51;60.61
69823;SHT31;57119;52.516;13.508;2023-05-07T09:47:08;18.23;61.54
69823;SHT31;57119;52.516;13.508;2023-05-07T09:49:39;18.17;64.00
69823;SHT31;57119;52.516;13.508;2023-05-07T09:52:06;17.80;65.03
69823;SHT31;57119;52.516;13.508;2023-05-07T09:54:34;17.61;64.00
69823;SHT31;57119;52.516;13.508;2023-05-07T09:57:01;17.80;65.24
69823;SHT31;57119;52.516;13.508;2023-05-07T09:59:28;16.13;66.19
69823;SHT31;57119;52.516;13.508;2023-05-07T10:01:56;16.00;67.45
69823;SHT31;57119;52.516;13.508;2023-05-07T10:04:23;15.81;67.29
69823;SHT31;57119;52.516;13.508;2023-05-07T10:06:50;15.54;69.15
69823;SHT31;57119;52.516;13.508;2023-05-07T10:09:15;16.34;67.27
69823;SHT31;57119;52.516;13.508;2023-05-07T10:11:41;15.91;68.48
69823;SHT31;57119;52.516;13.508;2023-05-07T10:14:09;16.12;67.35
69823;SHT31;57119;52.516;13.508;2023-05-07T10:16:36;16.13;68.07
69823;SHT31;57119;52.516;13.508;2023-05-07T10:19:05;15.56;68.67
69823;SHT31;57119;52.516;13.508;2023-05-07T10:21:31;17.50;64.82
69823;SHT31;57119;52.516;13.508;2023-05-07T10:24:05;16.63;65.93
69823;SHT31;57119;52.516;13.508;2023-05-07T10:26:35;17.12;64.54
69823;SHT31;57119;52.516;13.508;2023-05-07T10:29:18;17.94;64.94
69823;SHT31;57119;52.516;13.508;2023-05-07T10:31:53;18.21;64.10
69823;SHT31;57119;52.516;13.508;2023-05-07T10:34:33;18.18;62.44
69823;SHT31;57119;52.516;13.508;2023-05-07T10:37:00;18.08;61.94
69823;SHT31;57119;52.516;13.508;2023-05-07T10:39:26;17.73;62.79
69823;SHT31;57119;52.516;13.508;2023-05-07T10:41:52;17.31;63.89
69823;SHT31;57119;52.516;13.508;2023-05-07T10:44:30;18.47;63.46
69823;SHT31;57119;52.516;13.508;2023-05-07T10:47:09;20.02;60.22
69823;SHT31;57119;52.516;13.508;2023-05-07T10:50:20;19.78;60.23
69823;SHT31;57119;52.516;13.508;2023-05-07T10:52:23;20.33;58.14
69823;SHT31;57119;52.516;13.508;2023-05-07T10:57:40;22.07;55.43
69823;SHT31;57119;52.516;13.508;2023-05-07T11:05:28;18.76;61.57
69823;SHT31;57119;52.516;13.508;2023-05-07T11:08:04;17.98;62.29
69823;SHT31;57119;52.516;13.508;2023-05-07T11:10:49;18.95;60.80
69823;SHT31;57119;52.516;13.508;2023-05-07T11:13:15;20.23;59.20
69823;SHT31;57119;52.516;13.508;2023-05-07T11:15:43;20.87;58.26
69823;SHT31;57119;52.516;13.508;2023-05-07T11:18:10;19.50;58.90
69823;SHT31;57119;52.516;13.508;2023-05-07T11:28:28;19.88;58.92
69823;SHT31;57119;52.516;13.508;2023-05-07T11:30:54;20.70;57.18
69823;SHT31;57119;52.516;13.508;2023-05-07T11:33:19;20.78;55.65
69823;SHT31;57119;52.516;13.508;2023-05-07T11:35:45;21.15;54.32
69823;SHT31;57119;52.516;13.508;2023-05-07T11:38:12;19.98;56.24
69823;SHT31;57119;52.516;13.508;2023-05-07T11:43:16;18.58;58.70
69823;SHT31;57119;52.516;13.508;2023-05-07T11:45:42;19.57;58.27
69823;SHT31;57119;52.516;13.508;2023-05-07T11:48:07;21.94;54.40
69823;SHT31;57119;52.516;13.508;2023-05-07T11:50:33;19.09;58.69
69823;SHT31;57119;52.516;13.508;2023-05-07T11:52:58;20.51;56.88
69823;SHT31;57119;52.516;13.508;2023-05-07T11:55:24;22.59;53.73
69823;SHT31;57119;52.516;13.508;2023-05-07T11:57:51;23.47;51.13
69823;SHT31;57119;52.516;13.508;2023-05-07T12:00:16;24.72;51.27
69823;SHT31;57119;52.516;13.508;2023-05-07T12:02:43;22.29;53.66
69823;SHT31;57119;52.516;13.508;2023-05-07T12:05:08;22.27;54.49
69823;SHT31;57119;52.516;13.508;2023-05-07T12:07:34;21.80;54.26
69823;SHT31;57119;52.516;13.508;2023-05-07T12:10:04;20.70;55.64
69823;SHT31;57119;52.516;13.508;2023-05-07T12:12:30;22.65;53.93
69823;SHT31;57119;52.516;13.508;2023-05-07T12:14:55;20.29;55.96
69823;SHT31;57119;52.516;13.508;2023-05-07T12:17:20;21.16;54.29
69823;SHT31;57119;52.516;13.508;2023-05-07T12:19:46;20.63;54.81
69823;SHT31;57119;52.516;13.508;2023-05-07T12:22:12;21.91;53.75
69823;SHT31;57119;52.516;13.508;2023-05-07T12:24:46;20.87;53.27
69823;SHT31;57119;52.516;13.508;2023-05-07T12:27:13;21.73;53.63
69823;SHT31;57119;52.516;13.508;2023-05-07T12:29:38;23.03;52.32
69823;SHT31;57119;52.516;13.508;2023-05-07T12:32:06;21.62;53.01
69823;SHT31;57119;52.516;13.508;2023-05-07T12:34:32;22.95;52.42
69823;SHT31;57119;52.516;13.508;2023-05-07T12:37:01;22.65;50.79
69823;SHT31;57119;52.516;13.508;2023-05-07T12:39:28;20.64;55.30
69823;SHT31;57119;52.516;13.508;2023-05-07T12:41:55;22.34;52.72
69823;SHT31;57119;52.516;13.508;2023-05-07T12:44:24;21.15;54.04
69823;SHT31;57119;52.516;13.508;2023-05-07T12:46:51;22.28;51.74
69823;SHT31;57119;52.516;13.508;2023-05-07T12:49:16;22.28;52.12
69823;SHT31;57119;52.516;13.508;2023-05-07T12:51:43;23.58;49.38
69823;SHT31;57119;52.516;13.508;2023-05-07T12:54:09;24.85;49.78
69823;SHT31;57119;52.516;13.508;2023-05-07T12:56:37;23.18;50.61
69823;SHT31;57119;52.516;13.508;2023-05-07T12:59:03;23.11;50.91
69823;SHT31;57119;52.516;13.508;2023-05-07T13:01:35;22.07;51.09
69823;SHT31;57119;52.516;13.508;2023-05-07T13:04:02;21.52;54.73
69823;SHT31;57119;52.516;13.508;2023-05-07T13:06:30;21.81;51.73
69823;SHT31;57119;52.516;13.508;2023-05-07T13:08:56;20.30;54.76
69823;SHT31;57119;52.516;13.508;2023-05-07T13:11:22;19.90;55.53
69823;SHT31;57119;52.516;13.508;2023-05-07T13:13:48;21.66;54.30
69823;SHT31;57119;52.516;13.508;2023-05-07T13:16:13;23.71;51.47
69823;SHT31;57119;52.516;13.508;2023-05-07T13:18:40;23.58;51.24
69823;SHT31;57119;52.516;13.508;2023-05-07T13:21:05;21.45;53.05
69823;SHT31;57119;52.516;13.508;2023-05-07T13:23:31;19.21;55.48
69823;SHT31;57119;52.516;13.508;2023-05-07T13:25:56;18.34;57.89
69823;SHT31;57119;52.516;13.508;2023-05-07T13:28:24;18.99;58.80
69823;SHT31;57119;52.516;13.508;2023-05-07T13:30:49;19.98;55.45
69823;SHT31;57119;52.516;13.508;2023-05-07T13:33:17;19.40;55.59
69823;SHT31;57119;52.516;13.508;2023-05-07T13:35:42;19.23;56.08
69823;SHT31;57119;52.516;13.508;2023-05-07T13:38:07;18.62;56.86
69823;SHT31;57119;52.516;13.508;2023-05-07T13:40:33;18.65;57.34
69823;SHT31;57119;52.516;13.508;2023-05-07T13:42:58;18.92;58.04
69823;SHT31;57119;52.516;13.508;2023-05-07T13:45:26;18.07;59.67
69823;SHT31;57119;52.516;13.508;2023-05-07T13:47:54;18.51;58.66
69823;SHT31;57119;52.516;13.508;2023-05-07T13:50:20;18.14;59.19
69823;SHT31;57119;52.516;13.508;2023-05-07T13:52:45;17.58;60.34
69823;SHT31;57119;52.516;13.508;2023-05-07T13:55:19;18.06;59.38
69823;SHT31;57119;52.516;13.508;2023-05-07T13:57:46;19.89;56.63
69823;SHT31;57119;52.516;13.508;2023-05-07T14:00:12;21.19;54.37
69823;SHT31;57119;52.516;13.508;2023-05-07T14:02:38;20.95;54.07
69823;SHT31;57119;52.516;13.508;2023-05-07T14:05:03;21.14;52.68
69823;SHT31;57119;52.516;13.508;2023-05-07T14:07:29;21.96;53.01
69823;SHT31;57119;52.516;13.508;2023-05-07T14:09:54;22.97;51.14
69823;SHT31;57119;52.516;13.508;2023-05-07T14:12:20;21.81;52.17
69823;SHT31;57119;52.516;13.508;2023-05-07T14:14:45;22.17;50.68
69823;SHT31;57119;52.516;13.508;2023-05-07T14:17:12;21.46;52.17
69823;SHT31;57119;52.516;13.508;2023-05-07T14:19:37;22.95;50.13
69823;SHT31;57119;52.516;13.508;2023-05-07T14:22:02;21.73;50.90
69823;SHT31;57119;52.516;13.508;2023-05-07T14:24:28;23.38;49.11
69823;SHT31;57119;52.516;13.508;2023-05-07T14:26:53;24.30;47.48
69823;SHT31;57119;52.516;13.508;2023-05-07T14:29:19;24.94;46.76
69823;SHT31;57119;52.516;13.508;2023-05-07T14:31:45;23.02;48.07
69823;SHT31;57119;52.516;13.508;2023-05-07T14:34:10;22.53;49.03
69823;SHT31;57119;52.516;13.508;2023-05-07T14:36:36;23.59;48.32
69823;SHT31;57119;52.516;13.508;2023-05-07T14:39:03;23.93;48.56
69823;SHT31;57119;52.516;13.508;2023-05-07T14:41:29;23.34;50.05
69823;SHT31;57119;52.516;13.508;2023-05-07T14:43:54;25.09;48.43
69823;SHT31;57119;52.516;13.508;2023-05-07T14:46:20;24.21;48.72
69823;SHT31;57119;52.516;13.508;2023-05-07T14:48:45;21.09;53.53
69823;SHT31;57119;52.516;13.508;2023-05-07T14:51:12;21.02;53.92
69823;SHT31;57119;52.516;13.508;2023-05-07T14:53:38;21.49;53.49
69823;SHT31;57119;52.516;13.508;2023-05-07T14:56:04;21.41;53.69
69823;SHT31;57119;52.516;13.508;2023-05-07T14:58:30;23.00;52.36
69823;SHT31;57119;52.516;13.508;2023-05-07T15:00:56;20.70;52.99
69823;SHT31;57119;52.516;13.508;2023-05-07T15:03:21;18.24;57.69
69823;SHT31;57119;52.516;13.508;2023-05-07T15:05:47;17.72;60.17
69823;SHT31;57119;52.516;13.508;2023-05-07T15:08:12;17.50;59.30
69823;SHT31;57119;52.516;13.508;2023-05-07T15:10:38;18.40;58.60
69823;SHT31;57119;52.516;13.508;2023-05-07T15:13:07;21.08;53.96
69823;SHT31;57119;52.516;13.508;2023-05-07T15:15:32;21.29;54.76
69823;SHT31;57119;52.516;13.508;2023-05-07T15:18:04;19.30;56.69
69823;SHT31;57119;52.516;13.508;2023-05-07T15:20:32;20.39;55.83
69823;SHT31;57119;52.516;13.508;2023-05-07T15:22:57;19.75;56.59
69823;SHT31;57119;52.516;13.508;2023-05-07T15:25:23;19.75;55.26
69823;SHT31;57119;52.516;13.508;2023-05-07T15:27:48;20.46;53.90
69823;SHT31;57119;52.516;13.508;2023-05-07T15:30:14;20.23;55.14
69823;SHT31;57119;52.516;13.508;2023-05-07T15:32:41;19.55;54.38
69823;SHT31;57119;52.516;13.508;2023-05-07T15:35:07;17.90;57.74